Flight Track Log - Related Links

Times and Time Zones

All times are in EDT time to prevent confusion due to time zone crossing. See the B-18725 flight status page for this flight to view local times or setup timezone preferences in your user account.

Time Position Orientation Groundspeed Altitude Reporting Facility
EDT Latitude Longitude Course Direction KTS MPH feet Rate Location/Type
Fri 10:18:42 AM 33.9080 -118.4880 231° Southwest 230 265 1,800  Level FlightAware ADS-B
Fri 10:18:52 AM 33.9010 -118.4980 230° Southwest 240 276 2,000 1,971 Climbing FlightAware ADS-B
Fri 10:21:00 AM 34.0363 -118.7881 285° West  Level FlightAware Approximate
Fri 10:22:00 AM 34.0826 -118.9316 296° West  Level FlightAware Approximate
Fri 10:22:12 AM 33.7850 -118.7950 296° West 327 376 8,700  Level FlightAware ADS-B
Fri 10:22:27 AM 33.7970 -118.8240 296° West 327 376 9,400 2,280 Climbing FlightAware ADS-B
Fri 10:23:02 AM 33.8310 -118.8690 312° West 336 387 10,600 1,482 Climbing FlightAware ADS-B
Fri 10:23:52 AM 33.8890 -118.9440 313° West 377 434 11,500 1,125 Climbing FlightAware ADS-B
Fri 10:24:22 AM 33.9250 -118.9910 313° West 400 460 12,100 1,800 Climbing FlightAware ADS-B
Fri 10:25:12 AM 33.9890 -119.0770 312° West 413 475 13,900 2,021 Climbing FlightAware ADS-B
Fri 10:25:57 AM 34.0470 -119.1530 313° West 423 487 15,300 1,976 Climbing FlightAware ADS-B
Fri 10:26:37 AM 34.1020 -119.2260 312° West 432 497 16,700 1,976 Climbing FlightAware ADS-B
Fri 10:27:22 AM 34.1640 -119.3080 312° West 441 507 18,100 1,906 Climbing FlightAware ADS-B
Fri 10:28:02 AM 34.2150 -119.3760 312° West 445 512 19,400 1,875 Climbing FlightAware ADS-B
Fri 10:28:42 AM 34.2700 -119.4490 312° West 449 517 20,600 1,650 Climbing FlightAware ADS-B
Fri 10:29:22 AM 34.3260 -119.5240 312° West 456 525 21,600 1,553 Climbing FlightAware ADS-B
Fri 10:30:07 AM 34.3940 -119.6160 312° West 465 535 22,800 1,020 Climbing FlightAware ADS-B
Fri 10:31:02 AM 34.4660 -119.7150 311° West 468 539 23,300 1,453 Climbing FlightAware ADS-B
Fri 10:31:42 AM 34.5310 -119.7990 313° West 478 550 25,100 1,976 Climbing FlightAware ADS-B
Fri 10:32:27 AM 34.6010 -119.8930 312° West 485 558 26,100 1,200 Climbing FlightAware ADS-B
Fri 10:33:07 AM 34.6580 -119.9700 312° West 490 564 26,800 1,129 Climbing FlightAware ADS-B
Fri 10:33:52 AM 34.7270 -120.0640 312° West 493 567 27,700 1,271 Climbing FlightAware ADS-B
Fri 10:34:32 AM 34.7890 -120.1480 312° West 494 568 28,600 1,275 Climbing FlightAware ADS-B
Fri 10:35:12 AM 34.8450 -120.2240 312° West 490 564 29,400 1,050 Climbing FlightAware ADS-B
Fri 10:35:52 AM 34.9120 -120.3160 312° West 490 564 30,000 424 Climbing FlightAware ADS-B
Fri 10:36:37 AM 34.9700 -120.3970 311° West 490 564 30,000  Level FlightAware ADS-B
Fri 10:37:17 AM 35.0210 -120.4680 311° West 490 564 30,000  Level FlightAware ADS-B
Fri 10:38:02 AM 35.1080 -120.5840 313° West 487 560 30,000  Level FlightAware ADS-B
Fri 10:38:47 AM 35.1760 -120.6730 313° West 487 560 30,000  Level FlightAware ADS-B
Fri 10:39:27 AM 35.2420 -120.7500 316° Northwest 488 562 30,000  Level FlightAware ADS-B
Fri 10:40:02 AM 35.2950 -120.8110 317° Northwest 488 562 30,000  Level FlightAware ADS-B
Fri 10:40:52 AM 35.3840 -120.9070 319° Northwest 487 560 30,000  Level FlightAware ADS-B
Fri 10:41:32 AM 35.4520 -120.9810 318° Northwest 485 558 30,000  Level FlightAware ADS-B
Fri 10:42:17 AM 35.5260 -121.0630 318° Northwest 485 558 30,000  Level FlightAware ADS-B
Fri 10:42:57 AM 35.5930 -121.1370 318° Northwest 484 557 30,000  Level FlightAware ADS-B
Fri 10:43:32 AM 35.6470 -121.1970 318° Northwest 485 558 30,000  Level FlightAware ADS-B
Fri 10:44:22 AM 35.7310 -121.2900 318° Northwest 484 557 30,000  Level FlightAware ADS-B
Fri 10:44:57 AM 35.7850 -121.3530 317° Northwest 485 558 30,000  Level FlightAware ADS-B
Fri 10:45:42 AM 35.8610 -121.4360 318° Northwest 485 558 30,000  Level FlightAware ADS-B
Fri 10:46:27 AM 35.9420 -121.5280 317° Northwest 485 558 30,000  Level FlightAware ADS-B
Fri 10:47:07 AM 36.0070 -121.6020 317° Northwest 484 557 30,000  Level FlightAware ADS-B
Fri 10:47:52 AM 36.0800 -121.6840 318° Northwest 486 559 30,000  Level FlightAware ADS-B
Fri 10:48:32 AM 36.1460 -121.7600 317° Northwest 486 559 30,000  Level FlightAware ADS-B
Fri 10:49:12 AM 36.2150 -121.8380 318° Northwest 486 559 30,000  Level FlightAware ADS-B
Fri 10:49:57 AM 36.2870 -121.9200 317° Northwest 486 559 30,000  Level FlightAware ADS-B
Fri 10:50:37 AM 36.3500 -121.9930 317° Northwest 486 559 30,000  Level FlightAware ADS-B
Fri 10:51:22 AM 36.4270 -122.0820 317° Northwest 485 558 30,000  Level FlightAware ADS-B
Fri 10:51:57 AM 36.4800 -122.1420 318° Northwest 483 556 30,000  Level FlightAware ADS-B
Fri 10:52:47 AM 36.5670 -122.2430 317° Northwest 485 558 30,000  Level FlightAware ADS-B
Fri 10:53:27 AM 36.6320 -122.3180 317° Northwest 485 558 30,000  Level FlightAware ADS-B
Fri 10:54:12 AM 36.7060 -122.4040 317° Northwest 484 557 30,000  Level FlightAware ADS-B
Fri 10:54:52 AM 36.7710 -122.4800 317° Northwest 483 556 30,000  Level FlightAware ADS-B
Fri 10:55:32 AM 36.8330 -122.5530 317° Northwest 485 558 30,000  Level FlightAware ADS-B
Fri 10:56:07 AM 36.8900 -122.6190 317° Northwest 484 557 30,000  Level FlightAware ADS-B
Fri 10:56:57 AM 36.9720 -122.7150 317° Northwest 484 557 30,000  Level FlightAware ADS-B
Fri 10:57:42 AM 37.0480 -122.8050 317° Northwest 485 558 30,000  Level FlightAware ADS-B
Fri 10:58:22 AM 37.1120 -122.8800 317° Northwest 486 559 30,000  Level FlightAware ADS-B
Fri 10:59:02 AM 37.1790 -122.9600 316° Northwest 486 559 30,000  Level FlightAware ADS-B
Fri 10:59:47 AM 37.2500 -123.0440 317° Northwest 485 558 30,000  Level FlightAware ADS-B
Fri 11:00:27 AM 37.3180 -123.1240 317° Northwest 485 558 30,000  Level FlightAware ADS-B
Fri 11:01:07 AM 37.3820 -123.2010 316° Northwest 485 558 30,000  Level FlightAware ADS-B
Fri 11:01:52 AM 37.4570 -123.2910 316° Northwest 482 555 30,000  Level FlightAware ADS-B
Fri 11:02:32 AM 37.5200 -123.3670 316° Northwest 481 554 30,000  Level FlightAware ADS-B
Fri 11:03:17 AM 37.5910 -123.4520 317° Northwest 481 554 30,000  Level FlightAware ADS-B
Fri 11:03:57 AM 37.6560 -123.5300 316° Northwest 481 554 30,000  Level FlightAware ADS-B
Fri 11:04:42 AM 37.7290 -123.6190 316° Northwest 482 555 30,000  Level FlightAware ADS-B
Fri 11:05:22 AM 37.7940 -123.6970 317° Northwest 482 555 30,000  Level FlightAware ADS-B
Fri 11:06:02 AM 37.8560 -123.7720 316° Northwest 482 555 30,000  Level FlightAware ADS-B
Fri 11:06:47 AM 37.9220 -123.8530 316° Northwest 482 555 30,000  Level FlightAware ADS-B
Fri 11:07:27 AM 37.9760 -123.9200 316° Northwest 482 555 30,000  Level FlightAware ADS-B
Fri 11:08:07 AM 38.0310 -123.9860 317° Northwest 482 555 30,000  Level FlightAware ADS-B
Fri 11:08:47 AM 38.0860 -124.0530 316° Northwest 482 555 30,000  Level FlightAware ADS-B
Fri 11:09:27 AM 38.1400 -124.1200 316° Northwest 482 555 30,000  Level FlightAware ADS-B
Fri 11:10:17 AM 38.2080 -124.2040 316° Northwest 482 555 30,000  Level FlightAware ADS-B
Fri 11:10:57 AM 38.2630 -124.2710 316° Northwest 482 555 30,000  Level FlightAware ADS-B
Fri 11:11:37 AM 38.3170 -124.3380 316° Northwest 482 555 30,000  Level FlightAware ADS-B
Fri 11:12:17 AM 38.3720 -124.4050 316° Northwest 482 555 30,000  Level FlightAware ADS-B
Fri 11:12:57 AM 38.4260 -124.4730 315° West 482 555 30,000  Level FlightAware ADS-B
Fri 11:13:47 AM 38.4950 -124.5570 316° Northwest 482 555 30,000  Level FlightAware ADS-B
Fri 11:14:27 AM 38.5490 -124.6240 316° Northwest 482 555 30,000  Level FlightAware ADS-B
Fri 11:15:07 AM 38.6040 -124.6910 316° Northwest 482 555 30,000  Level FlightAware ADS-B
Fri 11:15:47 AM 38.6580 -124.7590 315° West 482 555 30,000  Level FlightAware ADS-B
Fri 11:16:56 AM 38.8814 -125.0456 315° West 480 552 30,000 -46 Level Oakland Center
Fri 11:17:57 AM 38.9950 -125.1883 316° Northwest 477 549 29,900 -49 Descending Oakland Center
Fri 11:18:59 AM 39.0889 -125.3094 315° West 478 550 29,900  Level Oakland Center
Fri 11:20:00 AM 39.1794 -125.4236 316° Northwest 476 548 29,900  Level Oakland Center
Fri 11:21:01 AM 39.2725 -125.5456 315° West 478 550 29,900 49 Level Oakland Center
Fri 11:22:02 AM 39.3656 -125.6656 315° West 475 547 30,000 49 Climbing Oakland Center
Fri 11:23:04 AM 39.4633 -125.7908 315° West 474 545 30,000  Level Oakland Center
Fri 11:24:05 AM 39.5553 -125.9117 315° West 472 543 30,000  Level Oakland Center
Fri 11:25:06 AM 39.6478 -126.0317 315° West 471 542 30,000  Level Oakland Center
Fri 11:26:08 AM 39.7394 -126.1525 315° West 470 541 30,000  Level Oakland Center
Fri 11:27:09 AM 39.8328 -126.2736 315° West 471 542 30,000  Level Oakland Center
Fri 11:28:10 AM 39.9236 -126.3950 314° West 471 542 30,000  Level Oakland Center
Fri 11:29:12 AM 40.0331 -126.5447 314° West 473 544 30,000  Level Oakland Center
Fri 11:30:13 AM 40.1128 -126.6794 308° West 472 543 30,000 -49 Level Oakland Center
Fri 11:31:15 AM 40.1936 -126.8153 308° West 473 544 29,900  Descending Oakland Center
Fri 11:32:39 AM 40.3000 -127.0000 308° West 471 542 30,000 15 Climbing Oakland Oceanic (ODAPS)
Fri 11:38:00 AM 40.7118 -127.7002 307° West 471 542 30,000  Level FlightAware Transoceanic
Fri 11:39:00 AM 40.7936 -127.8413 307° West 471 542 30,000  Level FlightAware Transoceanic
Fri 11:40:00 AM 40.8753 -127.9828 307° West 471 542 30,000  Level FlightAware Transoceanic
Fri 11:41:00 AM 40.9568 -128.1246 307° West 471 542 30,000  Level FlightAware Transoceanic
Fri 11:42:00 AM 41.0381 -128.2667 307° West 471 542 30,000  Level FlightAware Transoceanic
Fri 11:43:00 AM 41.1192 -128.4092 307° West 471 542 30,000  Level FlightAware Transoceanic
Fri 11:44:00 AM 41.2002 -128.5520 307° West 471 542 30,000  Level FlightAware Transoceanic
Fri 11:45:00 AM 41.2810 -128.6952 307° West 471 542 30,000  Level FlightAware Transoceanic
Fri 11:46:00 AM 41.3616 -128.8387 307° West 471 542 30,000  Level FlightAware Transoceanic
Fri 11:47:00 AM 41.4420 -128.9827 307° West 471 542 30,000  Level FlightAware Transoceanic
Fri 11:48:00 AM 41.5223 -129.1269 307° West 471 542 30,000  Level FlightAware Transoceanic
Fri 11:49:00 AM 41.6024 -129.2715 306° West 471 542 30,000  Level FlightAware Transoceanic
Fri 11:50:00 AM 41.6823 -129.4165 306° West 471 542 30,000  Level FlightAware Transoceanic
Fri 11:51:00 AM 41.7620 -129.5618 306° West 471 542 30,000  Level FlightAware Transoceanic
Fri 11:52:00 AM 41.8415 -129.7075 306° West 471 542 30,000  Level FlightAware Transoceanic
Fri 11:53:00 AM 41.9208 -129.8536 306° West 471 542 30,000  Level FlightAware Transoceanic
Fri 11:54:00 AM 42.0000 -130.0000 296° West 471 542 30,000  Level FlightAware Transoceanic
Fri 11:55:00 AM 42.0579 -130.1611 296° West 471 542 30,000 984 Level FlightAware Transoceanic
Fri 11:55:01 AM 42.0000 -130.0000 296° West 474 545 31,000  Climbing Oakland Oceanic (ODAPS)
Fri 11:56:00 AM 42.1155 -130.3225 296° West 471 542 30,000 -504 Descending FlightAware Transoceanic
Fri 11:57:00 AM 42.1729 -130.4842 296° West 471 542 30,000 536 Level FlightAware Transoceanic
Fri 11:57:52 AM 42.2000 -130.5667 295° West 474 545 31,000  Climbing Oakland Oceanic (ODAPS)
Fri 11:58:00 AM 42.2301 -130.6462 295° West 471 542 30,000 -882 Descending FlightAware Transoceanic
Fri 11:59:00 AM 42.2871 -130.8085 295° West 471 542 30,000  Level FlightAware Transoceanic
Fri 12:00:00 PM 42.3438 -130.9710 295° West 471 542 30,000 500 Level FlightAware Transoceanic
Fri 12:01:00 PM 42.3938 -131.1149 295° West 474 545 31,000 500 Climbing FlightAware Transoceanic
Fri 12:02:00 PM 42.4491 -131.2753 295° West 474 545 31,000  Level FlightAware Transoceanic
Fri 12:03:00 PM 42.5043 -131.4359 295° West 474 545 31,000  Level FlightAware Transoceanic
Fri 12:04:00 PM 42.5362 -131.5349 295° West 474 545 31,000  Level FlightAware Transoceanic
Fri 12:05:00 PM 42.5914 -131.6973 295° West 474 545 31,000  Level FlightAware Transoceanic
Fri 12:06:00 PM 42.6464 -131.8599 295° West 474 545 31,000  Level FlightAware Transoceanic
Fri 12:07:00 PM 42.7012 -132.0229 295° West 474 545 31,000  Level FlightAware Transoceanic
Fri 12:08:00 PM 42.7558 -132.1861 294° West 474 545 31,000  Level FlightAware Transoceanic
Fri 12:09:00 PM 42.8101 -132.3497 294° West 474 545 31,000  Level FlightAware Transoceanic
Fri 12:10:00 PM 42.8642 -132.5135 294° West 474 545 31,000  Level FlightAware Transoceanic
Fri 12:11:00 PM 42.9180 -132.6776 294° West 474 545 31,000  Level FlightAware Transoceanic
Fri 12:12:00 PM 42.9716 -132.8420 294° West 474 545 31,000  Level FlightAware Transoceanic
Fri 12:13:00 PM 43.0250 -133.0066 294° West 474 545 31,000  Level FlightAware Transoceanic
Fri 12:14:00 PM 43.0781 -133.1716 294° West 474 545 31,000  Level FlightAware Transoceanic
Fri 12:15:00 PM 43.1310 -133.3368 294° West 474 545 31,000  Level FlightAware Transoceanic
Fri 12:16:00 PM 43.1837 -133.5024 294° West 474 545 31,000  Level FlightAware Transoceanic
Fri 12:17:00 PM 43.2361 -133.6682 293° West 474 545 31,000  Level FlightAware Transoceanic
Fri 12:18:00 PM 43.2883 -133.8343 293° West 474 545 31,000  Level FlightAware Transoceanic
Fri 12:19:00 PM 43.3402 -134.0007 293° West 474 545 31,000  Level FlightAware Transoceanic
Fri 12:20:00 PM 43.3919 -134.1673 293° West 474 545 31,000  Level FlightAware Transoceanic
Fri 12:21:00 PM 43.4434 -134.3343 293° West 474 545 31,000  Level FlightAware Transoceanic
Fri 12:22:00 PM 43.4946 -134.5015 293° West 474 545 31,000  Level FlightAware Transoceanic
Fri 12:23:00 PM 43.5456 -134.6691 293° West 474 545 31,000  Level FlightAware Transoceanic
Fri 12:24:00 PM 43.5963 -134.8369 293° West 474 545 31,000  Level FlightAware Transoceanic
Fri 12:24:36 PM 43.6333 -134.9667 293° West 479 551 31,000  Level Oakland Oceanic (ODAPS)
Fri 12:25:00 PM 43.6468 -135.0049 292° West 474 545 31,000  Level FlightAware Transoceanic
Fri 12:26:00 PM 43.6970 -135.1733 292° West 474 545 31,000  Level FlightAware Transoceanic
Fri 12:27:00 PM 43.7470 -135.3420 292° West 474 545 31,000  Level FlightAware Transoceanic
Fri 12:28:00 PM 43.7967 -135.5109 292° West 474 545 31,000  Level FlightAware Transoceanic
Fri 12:29:00 PM 43.8462 -135.6801 292° West 474 545 31,000  Level FlightAware Transoceanic
Fri 12:30:00 PM 43.9341 -135.9887 292° West 479 551 31,000  Level FlightAware Transoceanic
Fri 12:31:00 PM 43.9833 -136.1600 292° West 479 551 31,000  Level FlightAware Transoceanic
Fri 12:32:00 PM 44.0323 -136.3316 292° West 479 551 31,000  Level FlightAware Transoceanic
Fri 12:33:00 PM 44.0810 -136.5035 291° West 479 551 31,000  Level FlightAware Transoceanic
Fri 12:34:00 PM 44.1295 -136.6757 291° West 479 551 31,000  Level FlightAware Transoceanic
Fri 12:35:00 PM 44.1777 -136.8482 291° West 479 551 31,000  Level FlightAware Transoceanic
Fri 12:36:00 PM 44.2256 -137.0209 291° West 479 551 31,000  Level FlightAware Transoceanic
Fri 12:37:00 PM 44.2733 -137.1939 291° West 479 551 31,000  Level FlightAware Transoceanic
Fri 12:38:00 PM 44.3207 -137.3672 291° West 479 551 31,000  Level FlightAware Transoceanic
Fri 12:39:00 PM 44.3679 -137.5408 291° West 479 551 31,000  Level FlightAware Transoceanic
Fri 12:40:00 PM 44.4147 -137.7147 291° West 479 551 31,000  Level FlightAware Transoceanic
Fri 12:41:00 PM 44.4614 -137.8888 290° West 479 551 31,000  Level FlightAware Transoceanic
Fri 12:42:00 PM 44.5077 -138.0633 290° West 479 551 31,000  Level FlightAware Transoceanic
Fri 12:43:00 PM 44.5538 -138.2380 290° West 479 551 31,000  Level FlightAware Transoceanic
Fri 12:44:00 PM 44.5997 -138.4129 290° West 479 551 31,000  Level FlightAware Transoceanic
Fri 12:45:00 PM 44.6452 -138.5882 290° West 479 551 31,000  Level FlightAware Transoceanic
Fri 12:46:00 PM 44.6905 -138.7637 290° West 479 551 31,000  Level FlightAware Transoceanic
Fri 12:47:00 PM 44.7355 -138.9395 290° West 479 551 31,000  Level FlightAware Transoceanic
Fri 12:48:00 PM 44.7803 -139.1156 290° West 479 551 31,000  Level FlightAware Transoceanic
Fri 12:49:00 PM 44.8248 -139.2919 290° West 479 551 31,000  Level FlightAware Transoceanic
Fri 12:50:00 PM 44.8690 -139.4685 289° West 479 551 31,000  Level FlightAware Transoceanic
Fri 12:51:00 PM 44.9129 -139.6454 289° West 479 551 31,000 789 Level FlightAware Transoceanic
Fri 12:51:16 PM 44.9167 -139.6333 288° West 485 558 32,000  Climbing Oakland Oceanic (ODAPS)
Fri 12:52:00 PM 44.9566 -139.8226 289° West 479 551 31,000 -577 Descending FlightAware Transoceanic
Fri 12:53:00 PM 45.0000 -140.0000 304° West 479 551 31,000 682 Level FlightAware Transoceanic
Fri 12:53:28 PM 45.0000 -140.0000 304° West 487 560 32,000  Climbing Oakland Oceanic (ODAPS)
Fri 12:54:00 PM 45.0760 -140.1599 304° West 479 551 31,000 -652 Descending FlightAware Transoceanic
Fri 12:55:00 PM 45.1518 -140.3202 304° West 479 551 31,000  Level FlightAware Transoceanic
Fri 12:56:00 PM 45.2273 -140.4809 304° West 479 551 31,000 500 Level FlightAware Transoceanic
Fri 12:57:00 PM 45.3027 -140.6420 304° West 485 558 32,000 500 Climbing FlightAware Transoceanic
Fri 12:58:00 PM 45.3778 -140.8036 303° West 485 558 32,000  Level FlightAware Transoceanic
Fri 12:59:00 PM 45.4450 -140.9491 303° West 487 560 32,000  Level FlightAware Transoceanic
Fri 01:00:00 PM 45.5184 -141.1088 303° West 487 560 32,000  Level FlightAware Transoceanic
Fri 01:01:00 PM 45.5916 -141.2688 303° West 487 560 32,000  Level FlightAware Transoceanic
Fri 01:02:00 PM 45.6646 -141.4293 303° West 487 560 32,000  Level FlightAware Transoceanic
Fri 01:03:00 PM 45.7373 -141.5902 303° West 487 560 32,000  Level FlightAware Transoceanic
Fri 01:04:00 PM 45.8098 -141.7515 303° West 487 560 32,000  Level FlightAware Transoceanic
Fri 01:05:00 PM 45.8821 -141.9132 303° West 487 560 32,000  Level FlightAware Transoceanic
Fri 01:06:00 PM 45.9541 -142.0754 303° West 487 560 32,000  Level FlightAware Transoceanic
Fri 01:07:00 PM 46.0259 -142.2380 302° West 487 560 32,000  Level FlightAware Transoceanic
Fri 01:08:00 PM 46.0975 -142.4010 302° West 487 560 32,000  Level FlightAware Transoceanic
Fri 01:09:00 PM 46.1689 -142.5644 302° West 487 560 32,000  Level FlightAware Transoceanic
Fri 01:10:00 PM 46.2400 -142.7282 302° West 487 560 32,000  Level FlightAware Transoceanic
Fri 01:11:00 PM 46.3109 -142.8925 302° West 487 560 32,000  Level FlightAware Transoceanic
Fri 01:12:00 PM 46.3815 -143.0572 302° West 487 560 32,000  Level FlightAware Transoceanic
Fri 01:13:00 PM 46.4519 -143.2223 302° West 487 560 32,000  Level FlightAware Transoceanic
Fri 01:14:00 PM 46.5221 -143.3878 302° West 487 560 32,000  Level FlightAware Transoceanic
Fri 01:15:00 PM 46.5920 -143.5538 301° West 487 560 32,000  Level FlightAware Transoceanic
Fri 01:16:00 PM 46.6617 -143.7202 301° West 487 560 32,000  Level FlightAware Transoceanic
Fri 01:17:00 PM 46.7312 -143.8870 301° West 487 560 32,000  Level FlightAware Transoceanic
Fri 01:18:00 PM 46.8004 -144.0543 301° West 487 560 32,000  Level FlightAware Transoceanic
Fri 01:18:13 PM 46.7667 -143.9833 301° West 487 560 32,000  Level Oakland Oceanic (ODAPS)
Fri 01:19:00 PM 46.8694 -144.2220 301° West 487 560 32,000  Level FlightAware Transoceanic
Fri 01:20:00 PM 46.9381 -144.3901 301° West 487 560 32,000  Level FlightAware Transoceanic
Fri 01:21:00 PM 47.0065 -144.5587 301° West 487 560 32,000  Level FlightAware Transoceanic
Fri 01:22:00 PM 47.0748 -144.7276 301° West 487 560 32,000  Level FlightAware Transoceanic
Fri 01:23:00 PM 47.1427 -144.8970 300° West 487 560 32,000  Level FlightAware Transoceanic
Fri 01:24:00 PM 47.1832 -145.0075 300° West 487 560 32,000  Level FlightAware Transoceanic
Fri 01:25:00 PM 47.2518 -145.1797 300° West 487 560 32,000  Level FlightAware Transoceanic
Fri 01:26:00 PM 47.3200 -145.3524 300° West 487 560 32,000  Level FlightAware Transoceanic
Fri 01:27:00 PM 47.3880 -145.5255 300° West 487 560 32,000  Level FlightAware Transoceanic
Fri 01:28:00 PM 47.4558 -145.6991 300° West 487 560 32,000  Level FlightAware Transoceanic
Fri 01:29:00 PM 47.5233 -145.8732 300° West 487 560 32,000  Level FlightAware Transoceanic
Fri 01:30:00 PM 47.5905 -146.0476 300° West 487 560 32,000  Level FlightAware Transoceanic
Fri 01:31:00 PM 47.6575 -146.2226 300° West 487 560 32,000  Level FlightAware Transoceanic
Fri 01:32:00 PM 47.7242 -146.3979 299° West 487 560 32,000  Level FlightAware Transoceanic
Fri 01:33:00 PM 47.7906 -146.5738 299° West 487 560 32,000  Level FlightAware Transoceanic
Fri 01:34:00 PM 47.8567 -146.7500 299° West 487 560 32,000  Level FlightAware Transoceanic
Fri 01:35:00 PM 47.9226 -146.9267 299° West 487 560 32,000  Level FlightAware Transoceanic
Fri 01:36:00 PM 47.9882 -147.1039 299° West 487 560 32,000  Level FlightAware Transoceanic
Fri 01:37:00 PM 48.0536 -147.2815 299° West 487 560 32,000  Level FlightAware Transoceanic
Fri 01:38:00 PM 48.1186 -147.4596 299° West 487 560 32,000  Level FlightAware Transoceanic
Fri 01:39:00 PM 48.1834 -147.6381 298° West 487 560 32,000  Level FlightAware Transoceanic
Fri 01:40:00 PM 48.2479 -147.8171 298° West 487 560 32,000  Level FlightAware Transoceanic
Fri 01:41:00 PM 48.3122 -147.9965 298° West 487 560 32,000  Level FlightAware Transoceanic
Fri 01:42:00 PM 48.3761 -148.1764 298° West 487 560 32,000  Level FlightAware Transoceanic
Fri 01:43:00 PM 48.4398 -148.3567 298° West 487 560 32,000  Level FlightAware Transoceanic
Fri 01:44:00 PM 48.5032 -148.5375 298° West 487 560 32,000  Level FlightAware Transoceanic
Fri 01:44:36 PM 48.5500 -148.6667 298° West 493 567 32,000  Level Oakland Oceanic (ODAPS)
Fri 01:45:00 PM 48.5663 -148.7187 298° West 487 560 32,000  Level FlightAware Transoceanic
Fri 01:46:00 PM 48.6291 -148.9004 298° West 487 560 32,000  Level FlightAware Transoceanic
Fri 01:47:00 PM 48.6917 -149.0826 297° West 487 560 32,000  Level FlightAware Transoceanic
Fri 01:48:00 PM 48.7539 -149.2651 297° West 487 560 32,000  Level FlightAware Transoceanic
Fri 01:49:00 PM 48.8159 -149.4482 297° West 487 560 32,000  Level FlightAware Transoceanic
Fri 01:50:00 PM 48.8890 -149.6644 297° West 493 567 32,000  Level FlightAware Transoceanic
Fri 01:51:00 PM 48.9446 -149.8320 297° West 493 567 32,000  Level FlightAware Transoceanic
Fri 01:51:57 PM 49.0000 -150.0000 306° West 493 567 32,000  Level Oakland Oceanic (ODAPS)
Fri 01:52:00 PM 49.0000 -150.0000 306° West 493 567 32,000  Level FlightAware Transoceanic
Fri 01:53:00 PM 49.0846 -150.1763 306° West 493 567 32,000  Level FlightAware Transoceanic
Fri 01:54:00 PM 49.1689 -150.3532 306° West 493 567 32,000  Level FlightAware Transoceanic
Fri 01:55:00 PM 49.2529 -150.5307 306° West 493 567 32,000  Level FlightAware Transoceanic
Fri 01:56:00 PM 49.3367 -150.7088 306° West 493 567 32,000  Level FlightAware Transoceanic
Fri 01:57:00 PM 49.4201 -150.8876 306° West 493 567 32,000  Level FlightAware Transoceanic
Fri 01:58:00 PM 49.4849 -151.0270 305° West 493 567 32,000  Level FlightAware Transoceanic
Fri 01:59:00 PM 49.5648 -151.2001 305° West 493 567 32,000  Level FlightAware Transoceanic
Fri 02:00:00 PM 49.6444 -151.3738 305° West 493 567 32,000  Level FlightAware Transoceanic
Fri 02:01:00 PM 49.7238 -151.5481 305° West 493 567 32,000  Level FlightAware Transoceanic
Fri 02:02:00 PM 49.8030 -151.7229 305° West 493 567 32,000  Level FlightAware Transoceanic
Fri 02:03:00 PM 49.8819 -151.8983 305° West 493 567 32,000  Level FlightAware Transoceanic
Fri 02:04:00 PM 49.9605 -152.0743 305° West 493 567 32,000  Level FlightAware Transoceanic
Fri 02:05:00 PM 50.0388 -152.2509 305° West 493 567 32,000  Level FlightAware Transoceanic
Fri 02:06:00 PM 50.1169 -152.4280 304° West 493 567 32,000  Level FlightAware Transoceanic
Fri 02:07:00 PM 50.1947 -152.6057 304° West 493 567 32,000  Level FlightAware Transoceanic
Fri 02:08:00 PM 50.2722 -152.7840 304° West 493 567 32,000  Level FlightAware Transoceanic
Fri 02:09:00 PM 50.3494 -152.9629 304° West 493 567 32,000  Level FlightAware Transoceanic
Fri 02:10:00 PM 50.4264 -153.1423 304° West 493 567 32,000  Level FlightAware Transoceanic
Fri 02:11:00 PM 50.5031 -153.3224 304° West 493 567 32,000  Level FlightAware Transoceanic
Fri 02:11:17 PM 50.5500 -153.4333 304° West 496 571 32,000  Level Oakland Oceanic (ODAPS)
Fri 02:12:00 PM 50.5796 -153.5030 304° West 493 567 32,000  Level FlightAware Transoceanic
Fri 02:13:00 PM 50.6557 -153.6842 303° West 493 567 32,000  Level FlightAware Transoceanic
Fri 02:14:00 PM 50.7316 -153.8660 303° West 493 567 32,000  Level FlightAware Transoceanic
Fri 02:15:00 PM 50.8072 -154.0484 303° West 493 567 32,000  Level FlightAware Transoceanic
Fri 02:16:00 PM 50.8824 -154.2314 303° West 493 567 32,000  Level FlightAware Transoceanic
Fri 02:17:00 PM 50.9954 -154.5086 303° West 496 571 32,000  Level FlightAware Transoceanic
Fri 02:18:00 PM 51.0687 -154.6898 303° West 496 571 32,000  Level FlightAware Transoceanic
Fri 02:19:00 PM 51.1417 -154.8716 303° West 496 571 32,000  Level FlightAware Transoceanic
Fri 02:20:00 PM 51.2144 -155.0540 302° West 496 571 32,000  Level FlightAware Transoceanic
Fri 02:21:00 PM 51.2868 -155.2369 302° West 496 571 32,000  Level FlightAware Transoceanic
Fri 02:22:00 PM 51.3589 -155.4205 302° West 496 571 32,000  Level FlightAware Transoceanic
Fri 02:23:00 PM 51.4308 -155.6046 302° West 496 571 32,000  Level FlightAware Transoceanic
Fri 02:24:00 PM 51.5023 -155.7892 302° West 496 571 32,000  Level FlightAware Transoceanic
Fri 02:25:00 PM 51.5736 -155.9745 302° West 496 571 32,000  Level FlightAware Transoceanic
Fri 02:26:00 PM 51.6446 -156.1603 302° West 496 571 32,000  Level FlightAware Transoceanic
Fri 02:27:00 PM 51.7152 -156.3467 301° West 496 571 32,000  Level FlightAware Transoceanic
Fri 02:28:00 PM 51.7856 -156.5337 301° West 496 571 32,000  Level FlightAware Transoceanic
Fri 02:29:00 PM 51.8557 -156.7213 301° West 496 571 32,000  Level FlightAware Transoceanic
Fri 02:30:00 PM 51.9255 -156.9095 301° West 496 571 32,000  Level FlightAware Transoceanic
Fri 02:31:00 PM 51.9950 -157.0982 301° West 496 571 32,000  Level FlightAware Transoceanic
Fri 02:32:00 PM 52.0642 -157.2875 301° West 496 571 32,000  Level FlightAware Transoceanic
Fri 02:33:00 PM 52.1330 -157.4774 300° West 496 571 32,000  Level FlightAware Transoceanic
Fri 02:34:00 PM 52.2016 -157.6680 300° West 496 571 32,000  Level FlightAware Transoceanic
Fri 02:35:00 PM 52.2699 -157.8591 300° West 496 571 32,000  Level FlightAware Transoceanic
Fri 02:36:00 PM 52.3378 -158.0507 300° West 496 571 32,000  Level FlightAware Transoceanic
Fri 02:37:00 PM 52.4055 -158.2430 300° West 496 571 32,000 526 Level FlightAware Transoceanic
Fri 02:37:54 PM 52.4833 -158.4833 300° West 506 582 33,000  Climbing Oakland Oceanic (ODAPS)
Fri 02:38:00 PM 52.4728 -158.4359 300° West 496 571 32,000 -909 Descending FlightAware Transoceanic
Fri 02:39:00 PM 52.5398 -158.6293 300° West 496 571 32,000  Level FlightAware Transoceanic
Fri 02:40:00 PM 52.6065 -158.8233 299° West 496 571 32,000  Level FlightAware Transoceanic
Fri 02:41:00 PM 52.6729 -159.0180 299° West 496 571 32,000  Level FlightAware Transoceanic
Fri 02:42:00 PM 52.7390 -159.2132 299° West 496 571 32,000  Level FlightAware Transoceanic
Fri 02:43:00 PM 52.8047 -159.4090 299° West 496 571 32,000 500 Level FlightAware Transoceanic
Fri 02:44:00 PM 52.9274 -159.7811 299° West 506 582 33,000 500 Climbing FlightAware Transoceanic
Fri 02:45:00 PM 53.0000 -160.0000 284° West 506 582 33,000  Level FlightAware Transoceanic
Fri 02:45:38 PM 53.0000 -160.0000 284° West 477 549 33,000  Level Oakland Oceanic (ODAPS)
Fri 02:46:00 PM 53.0298 -160.2073 283° West 506 582 33,000  Level FlightAware Transoceanic
Fri 02:47:00 PM 53.0593 -160.4148 283° West 506 582 33,000  Level FlightAware Transoceanic
Fri 02:48:00 PM 53.0885 -160.6227 283° West 506 582 33,000  Level FlightAware Transoceanic
Fri 02:48:10 PM 53.0667 -160.5500 282° West 470 541 33,000  Level Anchorage Center
Fri 02:48:44 PM 53.0833 -160.6833 282° West 480 552 33,000  Level Anchorage Center
Fri 02:49:00 PM 53.1172 -160.8308 283° West 506 582 33,000  Level FlightAware Transoceanic
Fri 02:49:45 PM 53.1167 -160.9000 284° West 480 552 33,000  Level Anchorage Center
Fri 02:50:00 PM 53.1456 -161.0392 283° West 506 582 33,000  Level FlightAware Transoceanic
Fri 02:50:45 PM 53.1500 -161.1167 284° West 460 529 33,000  Level Anchorage Center
Fri 02:51:00 PM 53.1773 -161.2751 283° West 477 549 33,000  Level FlightAware Transoceanic
Fri 02:51:45 PM 53.1833 -161.3333 284° West 470 541 33,000  Level Anchorage Center
Fri 02:52:00 PM 53.2055 -161.4887 282° West 477 549 33,000  Level FlightAware Transoceanic
Fri 02:52:45 PM 53.2000 -161.5500 277° West 470 541 33,000  Level Anchorage Center
Fri 02:53:00 PM 53.2333 -161.7025 282° West 477 549 33,000 200 Level FlightAware Transoceanic
Fri 02:53:45 PM 53.2333 -161.7667 284° West 480 552 33,200 400 Climbing Anchorage Center
Fri 02:54:45 PM 53.2667 -161.9833 285° West 470 541 33,700 400 Climbing Anchorage Center
Fri 02:55:45 PM 53.2833 -162.2000 277° West 480 552 34,000 150 Climbing Anchorage Center
Fri 02:56:45 PM 53.3167 -162.4167 285° West 480 552 34,000  Level Anchorage Center
Fri 02:57:46 PM 53.3500 -162.6333 285° West 480 552 34,000  Level Anchorage Center
Fri 02:58:10 PM 53.3500 -162.7333 270° West 490 564 34,000  Level Anchorage Center
Fri 03:01:00 PM 53.3961 -163.1166 282° West  Level FlightAware Approximate
Fri 03:04:46 PM 53.5167 -164.2000 280° West 480 552 34,000  Level Anchorage Center
Fri 03:05:47 PM 53.5500 -164.4167 285° West 470 541 34,000  Level Anchorage Center
Fri 03:06:11 PM 53.5500 -164.5000 270° West 470 541 34,000  Level Anchorage Center
Fri 03:07:11 PM 53.5667 -164.7167 277° West 470 541 34,000  Level Anchorage Center
Fri 03:08:00 PM 53.5623 -164.6010 281° West  Level FlightAware Approximate
Fri 03:08:11 PM 53.6000 -164.9500 284° West 470 541 34,000  Level Anchorage Center
Fri 03:09:00 PM 53.5845 -164.8140 280° West  Level FlightAware Approximate
Fri 03:09:11 PM 53.6167 -165.1667 277° West 470 541 34,000  Level Anchorage Center
Fri 03:10:00 PM 53.6063 -165.0272 280° West  Level FlightAware Approximate
Fri 03:10:47 PM 53.6500 -165.5167 279° West 480 552 34,000  Level Anchorage Center
Fri 03:11:11 PM 53.6667 -165.6167 286° West 480 552 34,000  Level Anchorage Center
Fri 03:13:11 PM 53.7000 -166.0667 277° West 480 552 34,000  Level Anchorage Center
Fri 03:14:12 PM 53.7167 -166.2333 280° West 470 541 34,000  Level Anchorage Center
Fri 03:15:12 PM 53.7333 -166.5000 276° West 460 529 34,000  Level Anchorage Center
Fri 03:16:12 PM 53.7667 -166.7167 285° West 470 541 34,000  Level Anchorage Center
Fri 03:17:12 PM 53.7833 -166.9333 278° West 470 541 34,000  Level Anchorage Center
Fri 03:18:12 PM 53.8000 -167.1667 277° West 470 541 34,000  Level Anchorage Center
Fri 03:19:12 PM 53.8167 -167.3833 278° West 470 541 34,000  Level Anchorage Center
Fri 03:20:12 PM 53.8333 -167.6000 278° West 460 529 34,000  Level Anchorage Center
Fri 03:21:12 PM 53.8500 -167.8167 278° West 460 529 34,000  Level Anchorage Center
Fri 03:22:12 PM 53.8667 -168.0333 278° West 450 518 34,000  Level Anchorage Center
Fri 03:23:12 PM 53.8833 -168.1833 281° West 450 518 34,000  Level Anchorage Center
Fri 03:24:12 PM 53.9000 -168.4500 276° West 440 506 34,000  Level Anchorage Center
Fri 03:25:12 PM 53.9167 -168.6667 278° West 460 529 34,000  Level Anchorage Center
Fri 03:26:12 PM 53.9167 -168.8667 270° West 440 506 34,000  Level Anchorage Center
Fri 03:27:12 PM 53.9333 -169.0833 278° West 440 506 34,000  Level Anchorage Center
Fri 03:28:12 PM 53.9500 -169.3000 278° West 460 529 34,000  Level Anchorage Center
Fri 03:29:12 PM 53.9667 -169.5167 278° West 450 518 34,000  Level Anchorage Center
Fri 03:30:12 PM 53.9833 -169.7167 278° West 450 518 34,000  Level Anchorage Center
Fri 03:31:12 PM 53.9833 -169.9333 270° West 450 518 34,000  Level Anchorage Center
Fri 03:32:12 PM 54.0000 -170.1500 278° West 450 518 34,000  Level Anchorage Center
Fri 03:33:13 PM 54.0000 -170.3667 270° West 450 518 34,000  Level Anchorage Center
Fri 03:34:13 PM 54.0167 -170.5833 278° West 440 506 34,000  Level Anchorage Center
Fri 03:35:12 PM 54.0167 -170.7333 270° West 420 483 34,000  Level Anchorage Center
Fri 03:36:12 PM 54.0333 -170.9500 278° West 450 518 34,000  Level Anchorage Center
Fri 03:37:13 PM 54.0333 -171.1500 270° West 440 506 34,000  Level Anchorage Center
Fri 03:38:13 PM 54.0333 -171.3667 270° West 440 506 34,000  Level Anchorage Center
Fri 03:39:13 PM 54.0500 -171.5833 278° West 430 495 34,000  Level Anchorage Center
Fri 03:40:13 PM 54.0500 -171.7833 270° West 440 506 34,000  Level Anchorage Center
Fri 03:41:13 PM 54.0667 -172.0000 278° West 450 518 34,000  Level Anchorage Center
Fri 03:42:13 PM 54.0667 -172.2167 270° West 440 506 34,000  Level Anchorage Center
Fri 03:43:13 PM 54.0667 -172.4167 270° West 440 506 34,000  Level Anchorage Center
Fri 03:44:14 PM 54.0667 -172.6500 270° West 450 518 34,000  Level Anchorage Center
Fri 03:45:13 PM 54.0833 -172.8500 278° West 440 506 34,000  Level Anchorage Center
Fri 03:46:13 PM 54.0833 -173.0500 270° West 430 495 34,000  Level Anchorage Center
Fri 03:47:13 PM 54.0833 -173.2667 270° West 440 506 34,000  Level Anchorage Center
Fri 03:48:13 PM 54.0833 -173.4667 270° West 430 495 34,000  Level Anchorage Center
Fri 03:49:13 PM 54.0833 -173.6833 270° West 440 506 34,000  Level Anchorage Center
Fri 03:50:13 PM 54.0833 -173.8833 270° West 440 506 34,000  Level Anchorage Center
Fri 03:51:14 PM 54.1000 -174.1000 278° West 430 495 34,000  Level Anchorage Center
Fri 03:52:14 PM 54.1000 -174.3000 270° West 440 506 34,000  Level Anchorage Center
Fri 03:53:14 PM 54.1000 -174.5167 270° West 430 495 34,000  Level Anchorage Center
Fri 03:56:00 PM 54.1011 -174.9015 270° West  Level FlightAware Approximate
Fri 04:03:00 PM 54.0934 -176.4264 270° West  Level FlightAware Approximate
Fri 04:04:00 PM 54.0908 -176.6442 269° West  Level FlightAware Approximate
Fri 04:05:00 PM 54.0877 -176.8619 269° West  Level FlightAware Approximate
Fri 04:06:00 PM 54.0843 -177.0796 269° West  Level FlightAware Approximate
Fri 04:07:00 PM 54.0804 -177.2972 268° West  Level FlightAware Approximate
Fri 04:08:00 PM 54.0762 -177.5149 268° West  Level FlightAware Approximate
Fri 04:09:00 PM 54.0716 -177.7324 268° West  Level FlightAware Approximate
Fri 04:10:00 PM 54.0666 -177.9500 268° West  Level FlightAware Approximate
Fri 04:11:00 PM 54.0612 -178.1674 268° West  Level FlightAware Approximate
Fri 04:12:00 PM 54.0554 -178.3848 267° West  Level FlightAware Approximate
Fri 04:12:49 PM 54.0500 -178.5000 267° West 434 499 34,000  Level Anchorage Center
Fri 04:13:00 PM 54.0492 -178.6022 267° West  Level FlightAware Approximate
Fri 04:14:00 PM 54.0426 -178.8195 267° West  Level FlightAware Approximate
Fri 04:15:00 PM 54.0356 -179.0367 267° West  Level FlightAware Approximate
Fri 04:16:00 PM 54.0283 -179.2538 267° West  Level FlightAware Approximate
Fri 04:17:00 PM 54.0205 -179.4709 267° West  Level FlightAware Approximate
Fri 04:18:00 PM 54.0124 -179.6879 266° West  Level FlightAware Approximate
Fri 04:19:00 PM 54.0083 -179.7859 266° West 434 499 34,000  Level FlightAware Transoceanic
Fri 04:20:00 PM 54.0000 -180.0000 284° West 434 499 34,000  Level FlightAware Transoceanic
Fri 04:20:14 PM 54.0000 180.0000 284° West 443 510 34,000  Level Anchorage Center
Fri 04:21:00 PM 54.0305 179.7886 284° West 434 499 34,000  Level FlightAware Transoceanic
Fri 04:21:21 PM 54.0167 179.7500 283° West 430 495 34,000  Level Anchorage Center
Fri 04:22:00 PM 54.0606 179.5768 284° West 434 499 34,000  Level FlightAware Transoceanic
Fri 04:22:20 PM 54.0500 179.5667 287° West 450 518 34,000  Level Anchorage Center
Fri 04:23:00 PM 54.0903 179.3647 283° West 434 499 34,000  Level FlightAware Transoceanic
Fri 04:23:21 PM 54.0833 179.3500 285° West 440 506 34,000  Level Anchorage Center
Fri 04:24:00 PM 54.1197 179.1524 283° West 434 499 34,000  Level FlightAware Transoceanic
Fri 04:24:21 PM 54.1000 179.1667 279° West 440 506 34,000  Level Anchorage Center
Fri 04:25:00 PM 54.1486 178.9397 283° West 434 499 34,000  Level FlightAware Transoceanic
Fri 04:25:21 PM 54.1333 178.9500 285° West 440 506 34,000  Level Anchorage Center
Fri 04:26:00 PM 54.1772 178.7268 283° West 443 510 34,000  Level FlightAware Transoceanic
Fri 04:26:21 PM 54.1667 178.7333 285° West 440 506 34,000  Level Anchorage Center
Fri 04:27:21 PM 54.1833 178.5500 279° West 440 506 34,000  Level Anchorage Center
Fri 04:28:21 PM 54.2167 178.3167 284° West 450 518 34,000  Level Anchorage Center
Fri 04:29:21 PM 54.2167 178.1333 270° West 450 518 34,000  Level Anchorage Center
Fri 04:30:21 PM 54.2167 177.9000 270° West 450 518 34,000  Level Anchorage Center
Fri 04:31:21 PM 54.2333 177.7167 279° West 440 506 34,000  Level Anchorage Center
Fri 04:32:21 PM 54.2333 177.4833 270° West 450 518 34,000  Level Anchorage Center
Fri 04:33:21 PM 54.2333 177.3167 270° West 440 506 34,000  Level Anchorage Center
Fri 04:34:21 PM 54.2333 177.0667 270° West 450 518 34,000  Level Anchorage Center
Fri 04:35:21 PM 54.2333 176.8333 270° West 450 518 34,000  Level Anchorage Center
Fri 04:36:21 PM 54.2333 176.6500 270° West 450 518 34,000  Level Anchorage Center
Fri 04:37:21 PM 54.2333 176.4167 270° West 450 518 34,000  Level Anchorage Center
Fri 04:38:21 PM 54.2333 176.2333 270° West 460 529 34,000  Level Anchorage Center
Fri 04:39:21 PM 54.2333 176.0000 270° West 450 518 34,000  Level Anchorage Center
Fri 04:40:21 PM 54.2333 175.8000 270° West 450 518 34,000  Level Anchorage Center
Fri 04:41:22 PM 54.2333 175.5667 270° West 450 518 34,000  Level Anchorage Center
Fri 04:42:22 PM 54.2333 175.3333 270° West 460 529 34,000  Level Anchorage Center
Fri 04:43:22 PM 54.2333 175.1500 270° West 460 529 34,000  Level Anchorage Center
Fri 04:44:22 PM 54.2333 174.9000 270° West 470 541 34,000  Level Anchorage Center
Fri 04:45:22 PM 54.2333 174.7167 270° West 450 518 34,000  Level Anchorage Center
Fri 04:46:22 PM 54.2333 174.4833 270° West 460 529 34,000  Level Anchorage Center
Fri 04:47:22 PM 54.2333 174.2833 270° West 460 529 34,000  Level Anchorage Center
Fri 04:48:22 PM 54.2167 174.0500 263° West 460 529 34,000  Level Anchorage Center
Fri 04:49:22 PM 54.2167 173.8500 270° West 470 541 34,000  Level Anchorage Center
Fri 04:50:22 PM 54.2167 173.6167 270° West 460 529 34,000  Level Anchorage Center
Fri 04:51:22 PM 54.2167 173.3667 270° West 470 541 34,000  Level Anchorage Center
Fri 04:52:22 PM 54.2000 173.1667 262° West 480 552 34,000  Level Anchorage Center
Fri 04:53:22 PM 54.2000 172.9333 270° West 470 541 34,000  Level Anchorage Center
Fri 04:54:22 PM 54.2000 172.7333 270° West 480 552 34,000  Level Anchorage Center
Fri 04:55:22 PM 54.1333 172.5167 242° Southwest 480 552 34,000  Level Anchorage Center
Fri 04:56:22 PM 54.0667 172.3667 233° Southwest 470 541 34,000 200 Level Anchorage Center
Fri 04:57:22 PM 53.9833 172.1500 237° Southwest 480 552 34,400 500 Climbing Anchorage Center
Fri 04:58:22 PM 53.9000 171.9667 232° Southwest 470 541 35,000 298 Climbing Anchorage Center
Fri 04:59:23 PM 53.8333 171.8000 236° Southwest 480 552 35,000  Level Anchorage Center
Fri 05:00:22 PM 53.7500 171.6000 235° Southwest 470 541 35,000  Level Anchorage Center
Fri 05:01:23 PM 53.6833 171.4333 236° Southwest 490 564 35,000  Level Anchorage Center
Fri 05:02:23 PM 53.6000 171.2500 233° Southwest 480 552 35,000  Level Anchorage Center
Fri 05:03:23 PM 53.5167 171.0833 230° Southwest 490 564 35,000  Level Anchorage Center
Fri 05:04:23 PM 53.4333 170.8833 235° Southwest 480 552 35,000  Level Anchorage Center
Fri 05:05:23 PM 53.3500 170.6833 235° Southwest 480 552 35,000  Level Anchorage Center
Fri 05:06:23 PM 53.2833 170.5333 233° Southwest 490 564 35,000  Level Anchorage Center
Fri 05:07:23 PM 53.2000 170.3500 233° Southwest 480 552 35,000  Level Anchorage Center
Fri 05:08:23 PM 53.1333 170.1833 236° Southwest 480 552 35,000  Level Anchorage Center
Fri 05:09:23 PM 53.0500 170.0000 233° Southwest 470 541 35,000  Level Anchorage Center
Fri 05:10:23 PM 52.9833 169.8500 234° Southwest 480 552 35,000  Level Anchorage Center
Fri 05:11:23 PM 52.9000 169.6333 238° Southwest 480 552 35,000  Level Anchorage Center
Fri 05:12:23 PM 52.8500 169.4667 244° Southwest 470 541 35,000  Level Anchorage Center
Fri 05:13:23 PM 52.7833 169.2667 241° Southwest 460 529 35,000  Level Anchorage Center
Fri 05:14:23 PM 52.7167 169.0500 243° Southwest 480 552 35,000  Level Anchorage Center
Fri 05:15:23 PM 52.6667 168.9000 241° Southwest 450 518 35,000  Level Anchorage Center
Fri 05:16:23 PM 52.5833 168.6833 238° Southwest 490 564 35,000  Level Anchorage Center
Fri 05:17:24 PM 52.5333 168.5167 244° Southwest 480 552 35,000  Level Anchorage Center
Fri 05:18:24 PM 52.4500 168.3167 236° Southwest 480 552 35,000  Level Anchorage Center
Fri 05:19:24 PM 52.3833 168.1667 234° Southwest 490 564 35,000  Level Anchorage Center
Fri 05:20:24 PM 52.3167 167.9500 243° Southwest 460 529 35,000  Level Anchorage Center
Fri 05:21:24 PM 52.2667 167.8000 241° Southwest 480 552 35,000  Level Anchorage Center
Fri 05:24:00 PM 52.1626 167.5135 239° Southwest  Level FlightAware Approximate
Fri 05:31:00 PM 51.6991 166.2759 239° Southwest  Level FlightAware Approximate
Fri 05:32:00 PM 51.6319 166.1012 238° Southwest  Level FlightAware Approximate
Fri 05:32:53 PM 51.4833 165.6833 239° Southwest 444 511 35,000  Level Anchorage Center
Fri 05:33:00 PM 51.5644 165.9270 238° Southwest  Level FlightAware Approximate
Fri 05:33:55 PM 51.4333 165.5500 238° Southwest 475 547 35,000  Level Anchorage Center
Fri 05:34:00 PM 51.4966 165.7533 238° Southwest  Level FlightAware Approximate
Fri 05:35:00 PM 51.4286 165.5802 238° Southwest  Level FlightAware Approximate
Fri 05:35:07 PM 51.3333 165.3167 238° Southwest 471 542 35,000  Level Anchorage Center
Fri 05:36:00 PM 51.3612 165.4065 238° Southwest  Level FlightAware Approximate
Fri 05:37:00 PM 51.2938 165.2332 238° Southwest  Level FlightAware Approximate
Fri 05:38:00 PM 51.2262 165.0604 238° Southwest  Level FlightAware Approximate
Fri 05:39:00 PM 51.0721 164.6523 237° Southwest 444 511 35,000  Level FlightAware Transoceanic
Fri 05:40:00 PM 50.9991 164.4744 237° Southwest 475 547 35,000  Level FlightAware Transoceanic
Fri 05:40:26 PM 50.9500 164.3833 237° Southwest 474 545 35,000  Level Anchorage Center
Fri 05:41:00 PM 50.9039 164.2580 237° Southwest 471 542 35,000  Level FlightAware Transoceanic
Fri 05:42:00 PM 50.8313 164.0835 237° Southwest 471 542 35,000  Level FlightAware Transoceanic
Fri 05:43:00 PM 50.7586 163.9095 236° Southwest 471 542 35,000  Level FlightAware Transoceanic
Fri 05:44:00 PM 50.6856 163.7360 236° Southwest 471 542 35,000  Level FlightAware Transoceanic
Fri 05:45:00 PM 50.6123 163.5631 236° Southwest 471 542 35,000  Level FlightAware Transoceanic
Fri 05:46:00 PM 50.5202 163.3566 236° Southwest 474 545 35,000  Level FlightAware Transoceanic
Fri 05:47:00 PM 50.4477 163.1873 236° Southwest 474 545 35,000  Level FlightAware Transoceanic
Fri 05:48:00 PM 50.3749 163.0186 236° Southwest 474 545 35,000  Level FlightAware Transoceanic
Fri 05:49:00 PM 50.3019 162.8503 236° Southwest 474 545 35,000  Level FlightAware Transoceanic
Fri 05:50:00 PM 50.2287 162.6826 236° Southwest 474 545 35,000  Level FlightAware Transoceanic
Fri 05:51:00 PM 50.1552 162.5154 235° Southwest 474 545 35,000  Level FlightAware Transoceanic
Fri 05:52:00 PM 50.0815 162.3486 235° Southwest 474 545 35,000  Level FlightAware Transoceanic
Fri 05:53:00 PM 50.0076 162.1824 235° Southwest 474 545 35,000  Level FlightAware Transoceanic
Fri 05:54:00 PM 49.9334 162.0168 235° Southwest 474 545 35,000  Level FlightAware Transoceanic
Fri 05:55:00 PM 49.8589 161.8516 235° Southwest 474 545 35,000  Level FlightAware Transoceanic
Fri 05:56:00 PM 49.7843 161.6869 235° Southwest 474 545 35,000  Level FlightAware Transoceanic
Fri 05:57:00 PM 49.7094 161.5228 235° Southwest 474 545 35,000  Level FlightAware Transoceanic
Fri 05:58:00 PM 49.6343 161.3591 235° Southwest 474 545 35,000  Level FlightAware Transoceanic
Fri 05:59:00 PM 49.5589 161.1960 234° Southwest 474 545 35,000  Level FlightAware Transoceanic
Fri 05:59:32 PM 49.5333 161.1333 232° Southwest 491 565 35,000  Level Anchorage Center
Fri 06:00:00 PM 49.4833 161.0333 234° Southwest 474 545 35,000  Level FlightAware Transoceanic
Fri 06:00:15 PM 49.4833 161.0333 234° Southwest 470 541 35,000  Level Anchorage Center
Fri 06:01:00 PM 49.4034 160.8625 234° Southwest 474 545 35,000  Level FlightAware Transoceanic
Fri 06:02:00 PM 49.3232 160.6922 234° Southwest 474 545 35,000  Level FlightAware Transoceanic
Fri 06:03:00 PM 49.2428 160.5225 234° Southwest 474 545 35,000  Level FlightAware Transoceanic
Fri 06:04:00 PM 49.1621 160.3533 234° Southwest 474 545 35,000  Level FlightAware Transoceanic
Fri 06:05:00 PM 49.0812 160.1847 234° Southwest 491 565 35,000  Level FlightAware Transoceanic
Fri 06:06:00 PM 49.0000 160.0167 233° Southwest 470 541 35,000  Level FlightAware Transoceanic
Fri 06:07:00 PM 48.9216 159.8568 233° Southwest 470 541 35,000  Level FlightAware Transoceanic
Fri 06:08:00 PM 48.8430 159.6975 233° Southwest 470 541 35,000  Level FlightAware Transoceanic
Fri 06:09:00 PM 48.7643 159.5387 233° Southwest 470 541 35,000  Level FlightAware Transoceanic
Fri 06:10:00 PM 48.6852 159.3803 233° Southwest 470 541 35,000  Level FlightAware Transoceanic
Fri 06:11:00 PM 48.6060 159.2225 233° Southwest 470 541 35,000  Level FlightAware Transoceanic
Fri 06:12:00 PM 48.5265 159.0652 233° Southwest 470 541 35,000  Level FlightAware Transoceanic
Fri 06:13:00 PM 48.4469 158.9083 232° Southwest 470 541 35,000  Level FlightAware Transoceanic
Fri 06:14:00 PM 48.3670 158.7520 232° Southwest 470 541 35,000  Level FlightAware Transoceanic
Fri 06:15:00 PM 48.2869 158.5961 232° Southwest 470 541 35,000  Level FlightAware Transoceanic
Fri 06:16:00 PM 48.2066 158.4407 232° Southwest 470 541 35,000  Level FlightAware Transoceanic
Fri 06:17:00 PM 48.1261 158.2858 232° Southwest 470 541 35,000  Level FlightAware Transoceanic
Fri 06:18:00 PM 48.0454 158.1314 232° Southwest 470 541 35,000  Level FlightAware Transoceanic
Fri 06:19:00 PM 47.9645 157.9775 232° Southwest 470 541 35,000  Level FlightAware Transoceanic
Fri 06:20:00 PM 47.8833 157.8241 232° Southwest 470 541 35,000  Level FlightAware Transoceanic
Fri 06:21:00 PM 47.8020 157.6711 232° Southwest 470 541 35,000  Level FlightAware Transoceanic
Fri 06:22:00 PM 47.7205 157.5186 231° Southwest 470 541 35,000  Level FlightAware Transoceanic
Fri 06:23:00 PM 47.6387 157.3667 231° Southwest 470 541 35,000  Level FlightAware Transoceanic
Fri 06:24:00 PM 47.5568 157.2151 231° Southwest 470 541 35,000  Level FlightAware Transoceanic
Fri 06:25:00 PM 47.4747 157.0641 231° Southwest 470 541 35,000  Level FlightAware Transoceanic
Fri 06:26:00 PM 47.3923 156.9135 231° Southwest 470 541 35,000  Level FlightAware Transoceanic
Fri 06:27:00 PM 47.3098 156.7634 231° Southwest 470 541 35,000  Level FlightAware Transoceanic
Fri 06:28:00 PM 47.2271 156.6137 231° Southwest 470 541 35,000  Level FlightAware Transoceanic
Fri 06:29:00 PM 47.1442 156.4646 231° Southwest 470 541 35,000  Level FlightAware Transoceanic
Fri 06:30:00 PM 47.0611 156.3159 231° Southwest 470 541 35,000  Level FlightAware Transoceanic
Fri 06:31:00 PM 46.9777 156.1676 230° Southwest 470 541 35,000  Level FlightAware Transoceanic
Fri 06:32:00 PM 46.8942 156.0198 230° Southwest 470 541 35,000  Level FlightAware Transoceanic
Fri 06:33:00 PM 46.8106 155.8725 230° Southwest 470 541 35,000  Level FlightAware Transoceanic
Fri 06:34:00 PM 46.7267 155.7256 230° Southwest 470 541 35,000  Level FlightAware Transoceanic
Fri 06:35:00 PM 46.6426 155.5792 230° Southwest 470 541 35,000  Level FlightAware Transoceanic
Fri 06:36:00 PM 46.5584 155.4333 230° Southwest 470 541 35,000  Level FlightAware Transoceanic
Fri 06:37:00 PM 46.4740 155.2878 230° Southwest 470 541 35,000  Level FlightAware Transoceanic
Fri 06:38:00 PM 46.3894 155.1427 230° Southwest 470 541 35,000  Level FlightAware Transoceanic
Fri 06:39:00 PM 46.3046 154.9981 230° Southwest 470 541 35,000  Level FlightAware Transoceanic
Fri 06:40:00 PM 46.2196 154.8540 229° Southwest 470 541 35,000  Level FlightAware Transoceanic
Fri 06:41:00 PM 46.1344 154.7103 229° Southwest 470 541 35,000  Level FlightAware Transoceanic
Fri 06:42:00 PM 46.0491 154.5670 229° Southwest 470 541 35,000  Level FlightAware Transoceanic
Fri 06:43:00 PM 45.9636 154.4242 229° Southwest 470 541 35,000  Level FlightAware Transoceanic
Fri 06:44:00 PM 45.8779 154.2818 229° Southwest 470 541 35,000  Level FlightAware Transoceanic
Fri 06:45:00 PM 45.7920 154.1399 229° Southwest 470 541 35,000  Level FlightAware Transoceanic
Fri 06:46:00 PM 45.7060 153.9984 229° Southwest 470 541 35,000  Level FlightAware Transoceanic
Fri 06:47:00 PM 45.6197 153.8573 229° Southwest 470 541 35,000 25 Level FlightAware Transoceanic
Fri 06:48:00 PM 45.5277 153.7316 224° Southwest  Level FlightAware Approximate
Fri 06:49:00 PM 45.4355 153.6064 224° Southwest  Level FlightAware Approximate
Fri 06:50:00 PM 45.4444 153.6008 228° Southwest  Level FlightAware Approximate
Fri 06:51:00 PM 45.3597 153.4655 228° Southwest  Level FlightAware Approximate
Fri 06:52:00 PM 45.2747 153.3306 228° Southwest  Level FlightAware Approximate
Fri 06:53:00 PM 45.1896 153.1962 228° Southwest  Level FlightAware Approximate
Fri 06:54:00 PM 45.1044 153.0621 228° Southwest  Level FlightAware Approximate
Fri 06:55:00 PM 45.0190 152.9284 228° Southwest  Level FlightAware Approximate
Fri 06:56:00 PM 44.9334 152.7951 228° Southwest  Level FlightAware Approximate
Fri 06:57:00 PM 44.8477 152.6622 228° Southwest  Level FlightAware Approximate
Fri 06:58:00 PM 44.7618 152.5297 228° Southwest  Level FlightAware Approximate
Fri 06:59:00 PM 44.6758 152.3976 228° Southwest  Level FlightAware Approximate
Fri 07:00:00 PM 44.5897 152.2659 227° Southwest  Level FlightAware Approximate
Fri 07:01:00 PM 44.5033 152.1345 227° Southwest  Level FlightAware Approximate
Fri 07:02:00 PM 44.4169 152.0036 227° Southwest  Level FlightAware Approximate
Fri 07:03:00 PM 44.3302 151.8730 227° Southwest  Level FlightAware Approximate
Fri 07:04:00 PM 44.2435 151.7429 227° Southwest  Level FlightAware Approximate
Fri 07:05:00 PM 44.1566 151.6131 227° Southwest  Level FlightAware Approximate
Fri 07:06:00 PM 44.0695 151.4837 227° Southwest  Level FlightAware Approximate
Fri 07:07:00 PM 43.9823 151.3547 227° Southwest  Level FlightAware Approximate
Fri 07:08:00 PM 43.8949 151.2260 227° Southwest  Level FlightAware Approximate
Fri 07:09:00 PM 43.8074 151.0978 227° Southwest  Level FlightAware Approximate
Fri 07:10:00 PM 43.7198 150.9699 227° Southwest  Level FlightAware Approximate
Fri 07:11:00 PM 43.6320 150.8424 226° Southwest  Level FlightAware Approximate
Fri 07:12:00 PM 43.5441 150.7152 226° Southwest  Level FlightAware Approximate
Fri 07:13:00 PM 43.4560 150.5885 226° Southwest  Level FlightAware Approximate
Fri 07:14:00 PM 43.3678 150.4621 226° Southwest  Level FlightAware Approximate
Fri 07:15:00 PM 43.2794 150.3360 226° Southwest  Level FlightAware Approximate
Fri 07:16:00 PM 43.1910 150.2104 226° Southwest  Level FlightAware Approximate
Fri 07:17:00 PM 43.1023 150.0851 226° Southwest  Level FlightAware Approximate
Fri 07:18:00 PM 43.0136 149.9601 226° Southwest  Level FlightAware Approximate
Fri 07:19:00 PM 42.9247 149.8356 226° Southwest  Level FlightAware Approximate
Fri 07:20:00 PM 42.8357 149.7113 226° Southwest  Level FlightAware Approximate
Fri 07:21:00 PM 42.7465 149.5875 226° Southwest  Level FlightAware Approximate
Fri 07:22:00 PM 42.6572 149.4640 226° Southwest  Level FlightAware Approximate
Fri 07:23:00 PM 42.5678 149.3408 225° Southwest  Level FlightAware Approximate
Fri 07:24:00 PM 42.4782 149.2180 225° Southwest  Level FlightAware Approximate
Fri 07:25:00 PM 42.3885 149.0956 225° Southwest  Level FlightAware Approximate
Fri 07:25:53 PM 42.3290 149.0050 225° Southwest 445 512 36,000  Level FlightAware ADS-B
Fri 07:26:00 PM 42.2987 148.9735 225° Southwest  Level FlightAware Approximate
Fri 07:26:33 PM 42.2690 148.9240 225° Southwest 444 511 36,000  Level FlightAware ADS-B
Fri 07:27:23 PM 42.2020 148.8340 225° Southwest 451 519 36,000  Level FlightAware ADS-B
Fri 07:28:08 PM 42.1300 148.7370 225° Southwest 451 519 36,000  Level FlightAware ADS-B
Fri 07:28:48 PM 42.0710 148.6580 225° Southwest 452 520 36,000  Level FlightAware ADS-B
Fri 07:29:38 PM 41.9990 148.5610 225° Southwest 452 520 36,000  Level FlightAware ADS-B
Fri 07:30:13 PM 41.9450 148.4900 224° Southwest 451 519 36,000  Level FlightAware ADS-B
Fri 07:30:58 PM 41.8790 148.4020 225° Southwest 449 517 36,000  Level FlightAware ADS-B
Fri 07:31:43 PM 41.8110 148.3120 225° Southwest 442 509 36,000  Level FlightAware ADS-B
Fri 07:32:23 PM 41.7520 148.2340 225° Southwest 447 514 36,000  Level FlightAware ADS-B
Fri 07:33:08 PM 41.6860 148.1470 225° Southwest 446 513 36,000  Level FlightAware ADS-B
Fri 07:33:43 PM 41.6340 148.0810 224° Southwest 445 512 36,000  Level FlightAware ADS-B
Fri 07:34:28 PM 41.5670 147.9950 224° Southwest 444 511 36,000  Level FlightAware ADS-B
Fri 07:35:08 PM 41.5060 147.9160 224° Southwest 444 511 36,000  Level FlightAware ADS-B
Fri 07:35:53 PM 41.4390 147.8310 224° Southwest 444 511 36,000  Level FlightAware ADS-B
Fri 07:36:28 PM 41.3910 147.7690 224° Southwest 442 509 36,000  Level FlightAware ADS-B
Fri 07:39:00 PM 41.1572 147.4733 224° Southwest  Level FlightAware Approximate
Fri 07:39:23 PM 41.1270 147.4360 224° Southwest 441 507 36,000  Level FlightAware ADS-B
Fri 07:40:23 PM 41.0430 147.3300 224° Southwest 441 507 36,000  Level FlightAware ADS-B
Fri 07:41:13 PM 40.9670 147.2340 224° Southwest 440 506 36,000  Level FlightAware ADS-B
Fri 07:42:18 PM 40.8660 147.1090 223° Southwest 440 506 36,000  Level FlightAware ADS-B
Fri 07:44:08 PM 40.7150 146.9200 224° Southwest 438 504 36,000  Level FlightAware ADS-B
Fri 07:45:03 PM 40.6270 146.8110 223° Southwest 426 490 36,000  Level FlightAware ADS-B
Fri 07:45:43 PM 40.5800 146.7510 224° Southwest 425 489 36,000  Level FlightAware ADS-B
Fri 07:46:23 PM 40.5110 146.6690 222° Southwest 423 487 36,000  Level FlightAware ADS-B
Fri 07:46:58 PM 40.4690 146.6170 223° Southwest 423 487 36,000  Level FlightAware ADS-B
Fri 07:47:48 PM 40.4080 146.5430 223° Southwest 423 487 36,000  Level FlightAware ADS-B
Fri 07:48:43 PM 40.3110 146.4240 223° Southwest 423 487 36,000  Level FlightAware ADS-B
Fri 07:49:23 PM 40.2620 146.3650 223° Southwest 423 487 36,000  Level FlightAware ADS-B
Fri 07:50:13 PM 40.2010 146.2900 223° Southwest 423 487 36,000  Level FlightAware ADS-B
Fri 07:50:53 PM 40.1520 146.2310 223° Southwest 423 487 36,000  Level FlightAware ADS-B
Fri 07:51:33 PM 40.1040 146.1720 223° Southwest 423 487 36,000  Level FlightAware ADS-B
Fri 07:52:13 PM 40.0550 146.1120 223° Southwest 423 487 36,000  Level FlightAware ADS-B
Fri 07:52:53 PM 40.0060 146.0530 223° Southwest 423 487 36,000  Level FlightAware ADS-B
Fri 07:53:43 PM 39.9460 145.9790 223° Southwest 423 487 36,000  Level FlightAware ADS-B
Fri 07:54:23 PM 39.8970 145.9200 223° Southwest 423 487 36,000  Level FlightAware ADS-B
Fri 07:55:03 PM 39.8480 145.8610 223° Southwest 423 487 36,000  Level FlightAware ADS-B
Fri 07:55:43 PM 39.8000 145.8020 223° Southwest 423 487 36,000  Level FlightAware ADS-B
Fri 07:56:23 PM 39.7510 145.7430 223° Southwest 423 487 36,000  Level FlightAware ADS-B
Fri 07:57:13 PM 39.6900 145.6690 223° Southwest 423 487 36,000  Level FlightAware ADS-B
Fri 07:57:53 PM 39.6410 145.6100 223° Southwest 423 487 36,000  Level FlightAware ADS-B
Fri 08:00:00 PM 39.4398 145.3774 222° Southwest  Level FlightAware Approximate
Fri 08:01:00 PM 39.3446 145.2680 222° Southwest  Level FlightAware Approximate
Fri 08:02:00 PM 39.2493 145.1589 222° Southwest  Level FlightAware Approximate
Fri 08:03:00 PM 39.1539 145.0501 222° Southwest  Level FlightAware Approximate
Fri 08:04:00 PM 39.0584 144.9416 221° Southwest  Level FlightAware Approximate
Fri 08:05:00 PM 38.9628 144.8334 221° Southwest  Level FlightAware Approximate
Fri 08:06:00 PM 38.8671 144.7254 221° Southwest  Level FlightAware Approximate
Fri 08:07:00 PM 38.7714 144.6175 222° Southwest  Level FlightAware Approximate
Fri 08:08:00 PM 38.6761 144.5093 222° Southwest  Level FlightAware Approximate
Fri 08:09:00 PM 38.5807 144.4014 221° Southwest  Level FlightAware Approximate
Fri 08:10:00 PM 38.4851 144.2938 221° Southwest  Level FlightAware Approximate
Fri 08:11:00 PM 38.3895 144.1865 221° Southwest  Level FlightAware Approximate
Fri 08:12:00 PM 38.2938 144.0794 221° Southwest  Level FlightAware Approximate
Fri 08:13:00 PM 38.1980 143.9727 221° Southwest  Level FlightAware Approximate
Fri 08:14:00 PM 38.1021 143.8662 221° Southwest  Level FlightAware Approximate
Fri 08:15:00 PM 38.0061 143.7600 221° Southwest  Level FlightAware Approximate
Fri 08:15:23 PM 38.5390 143.2810 221° Southwest 412 474 36,000  Level FlightAware ADS-B
Fri 08:15:58 PM 38.5290 143.1970 261° West 413 475 36,000  Level FlightAware ADS-B
Fri 08:16:43 PM 38.5160 143.0910 261° West 414 476 36,000  Level FlightAware ADS-B
Fri 08:17:28 PM 38.5020 142.9800 261° West 414 476 36,000  Level FlightAware ADS-B
Fri 08:18:13 PM 38.4900 142.8760 262° West 415 478 36,000  Level FlightAware ADS-B
Fri 08:18:53 PM 38.4780 142.7830 261° West 414 476 36,000  Level FlightAware ADS-B
Fri 08:19:33 PM 38.4650 142.6790 261° West 412 474 36,000  Level FlightAware ADS-B
Fri 08:20:13 PM 38.4540 142.5880 261° West 412 474 36,000  Level FlightAware ADS-B
Fri 08:20:58 PM 38.4390 142.4770 260° West 411 473 36,000  Level FlightAware ADS-B
Fri 08:21:38 PM 38.4160 142.3850 252° West 411 473 36,000  Level FlightAware ADS-B
Fri 08:22:23 PM 38.3880 142.2820 251° West 409 471 36,000  Level FlightAware ADS-B
Fri 08:23:03 PM 38.3630 142.1900 251° West 409 471 36,000  Level FlightAware ADS-B
Fri 08:23:48 PM 38.3370 142.0900 252° West 409 471 36,000  Level FlightAware ADS-B
Fri 08:24:28 PM 38.3110 141.9950 251° West 409 471 36,000  Level FlightAware ADS-B
Fri 08:25:08 PM 38.2870 141.9050 251° West 409 471 36,000  Level FlightAware ADS-B
Fri 08:25:53 PM 38.2600 141.8030 251° West 410 472 36,000  Level FlightAware ADS-B
Fri 08:26:33 PM 38.2360 141.7120 251° West 416 479 36,000  Level FlightAware ADS-B
Fri 08:27:18 PM 38.2070 141.6050 251° West 421 484 36,000  Level FlightAware ADS-B
Fri 08:27:58 PM 38.1820 141.5150 251° West 422 486 36,000  Level FlightAware ADS-B
Fri 08:28:38 PM 38.1570 141.4200 252° West 420 483 36,000  Level FlightAware ADS-B
Fri 08:29:18 PM 38.1330 141.3280 252° West 419 482 36,000  Level FlightAware ADS-B
Fri 08:30:03 PM 38.1030 141.2240 250° West 417 480 36,000  Level FlightAware ADS-B
Fri 08:30:48 PM 38.0700 141.1230 247° West 416 479 36,000  Level FlightAware ADS-B
Fri 08:31:28 PM 38.0440 141.0410 248° West 412 474 36,000  Level FlightAware ADS-B
Fri 08:32:08 PM 38.0110 140.9420 247° West 409 471 36,000  Level FlightAware ADS-B
Fri 08:32:53 PM 37.9790 140.8430 248° West 410 472 36,000  Level FlightAware ADS-B
Fri 08:33:33 PM 37.9510 140.7570 248° West 415 478 36,000  Level FlightAware ADS-B
Fri 08:34:13 PM 37.9220 140.6710 247° West 412 474 36,000  Level FlightAware ADS-B
Fri 08:34:58 PM 37.8880 140.5680 247° West 410 472 36,000  Level FlightAware ADS-B
Fri 08:35:38 PM 37.8570 140.4770 247° West 408 470 36,000  Level FlightAware ADS-B
Fri 08:36:23 PM 37.8270 140.3870 247° West 407 468 36,000  Level FlightAware ADS-B
Fri 08:37:03 PM 37.7950 140.2930 247° West 408 470 36,000  Level FlightAware ADS-B
Fri 08:37:48 PM 37.7620 140.1940 247° West 407 468 36,000  Level FlightAware ADS-B
Fri 08:38:28 PM 37.7320 140.1050 247° West 410 472 36,000  Level FlightAware ADS-B
Fri 08:39:08 PM 37.7020 140.0180 246° West 412 474 36,000  Level FlightAware ADS-B
Fri 08:39:53 PM 37.6700 139.9220 247° West 414 476 36,000  Level FlightAware ADS-B
Fri 08:40:33 PM 37.6390 139.8330 246° West 412 474 36,000  Level FlightAware ADS-B
Fri 08:41:18 PM 37.6060 139.7360 247° West 412 474 36,000  Level FlightAware ADS-B
Fri 08:41:58 PM 37.5740 139.6430 247° West 414 476 36,000  Level FlightAware ADS-B
Fri 08:42:38 PM 37.5440 139.5560 247° West 414 476 36,000  Level FlightAware ADS-B
Fri 08:43:18 PM 37.5130 139.4660 247° West 414 476 36,000  Level FlightAware ADS-B
Fri 08:44:33 PM 37.4580 139.3070 246° West 415 478 36,000  Level FlightAware ADS-B
Fri 08:45:03 PM 37.4340 139.2380 246° West 414 476 36,000  Level FlightAware ADS-B
Fri 08:45:58 PM 37.3920 139.1190 246° West 414 476 36,000  Level FlightAware ADS-B
Fri 08:46:38 PM 37.3600 139.0290 246° West 415 478 36,000  Level FlightAware ADS-B
Fri 08:47:18 PM 37.3300 138.9420 247° West 414 476 36,000  Level FlightAware ADS-B
Fri 08:48:03 PM 37.2930 138.8390 246° West 414 476 36,000  Level FlightAware ADS-B
Fri 08:48:43 PM 37.2630 138.7530 246° West 414 476 36,000  Level FlightAware ADS-B
Fri 08:49:28 PM 37.2280 138.6550 246° West 414 476 36,000  Level FlightAware ADS-B
Fri 08:50:08 PM 37.1950 138.5610 246° West 414 476 36,000  Level FlightAware ADS-B
Fri 08:50:48 PM 37.1640 138.4750 246° West 415 478 36,000  Level FlightAware ADS-B
Fri 08:51:33 PM 37.1280 138.3750 246° West 417 480 36,000  Level FlightAware ADS-B
Fri 08:52:13 PM 37.0970 138.2880 246° West 416 479 36,000  Level FlightAware ADS-B
Fri 08:52:58 PM 37.0600 138.1850 246° West 415 478 36,000  Level FlightAware ADS-B
Fri 08:53:38 PM 37.0300 138.1000 246° West 416 479 36,000  Level FlightAware ADS-B
Fri 08:54:18 PM 36.9980 138.0110 246° West 416 479 36,000  Level FlightAware ADS-B
Fri 08:55:03 PM 36.9620 137.9110 246° West 420 483 36,000  Level FlightAware ADS-B
Fri 08:55:43 PM 36.9290 137.8200 246° West 420 483 36,000  Level FlightAware ADS-B
Fri 08:56:23 PM 36.8970 137.7320 246° West 421 484 36,000  Level FlightAware ADS-B
Fri 08:57:08 PM 36.8610 137.6310 246° West 427 491 36,000  Level FlightAware ADS-B
Fri 08:57:48 PM 36.8280 137.5420 245° Southwest 428 493 36,000  Level FlightAware ADS-B
Fri 08:58:33 PM 36.7900 137.4390 245° Southwest 428 493 36,000  Level FlightAware ADS-B
Fri 08:59:13 PM 36.7590 137.3540 246° West 426 490 36,000  Level FlightAware ADS-B
Fri 09:00:08 PM 36.7140 137.2300 246° West 424 488 36,000  Level FlightAware ADS-B
Fri 09:00:48 PM 36.6810 137.1410 245° Southwest 423 487 36,000  Level FlightAware ADS-B
Fri 09:01:33 PM 36.6440 137.0420 245° Southwest 423 487 36,000  Level FlightAware ADS-B
Fri 09:02:18 PM 36.6050 136.9370 245° Southwest 424 488 36,000  Level FlightAware ADS-B
Fri 09:02:53 PM 36.5810 136.8700 246° West 424 488 36,000  Level FlightAware ADS-B
Fri 09:03:43 PM 36.5370 136.7530 245° Southwest 423 487 36,000  Level FlightAware ADS-B
Fri 09:04:23 PM 36.5030 136.6640 245° Southwest 424 488 36,000  Level FlightAware ADS-B
Fri 09:05:03 PM 36.4700 136.5770 245° Southwest 422 486 36,000  Level FlightAware ADS-B
Fri 09:05:48 PM 36.4360 136.4850 245° Southwest 424 488 36,000  Level FlightAware ADS-B
Fri 09:06:28 PM 36.4000 136.3900 245° Southwest 425 489 36,000  Level FlightAware ADS-B
Fri 09:07:13 PM 36.3620 136.2900 245° Southwest 425 489 36,000  Level FlightAware ADS-B
Fri 09:07:53 PM 36.3310 136.2070 245° Southwest 424 488 36,000  Level FlightAware ADS-B
Fri 09:08:33 PM 36.2950 136.1140 244° Southwest 424 488 36,000  Level FlightAware ADS-B
Fri 09:09:18 PM 36.2580 136.0160 245° Southwest 423 487 36,000 -282 Level FlightAware ADS-B
Fri 09:09:58 PM 36.2250 135.9320 244° Southwest 427 491 35,600 -565 Descending FlightAware ADS-B
Fri 09:10:43 PM 36.1840 135.8300 244° Southwest 428 493 35,200 -494 Descending FlightAware ADS-B
Fri 09:11:23 PM 36.1370 135.7480 235° Southwest 434 499 34,900 -525 Descending FlightAware ADS-B
Fri 09:12:03 PM 36.0860 135.6740 230° Southwest 428 493 34,500 -494 Descending FlightAware ADS-B
Fri 09:12:48 PM 36.0270 135.5900 229° Southwest 426 490 34,200 -353 Descending FlightAware ADS-B
Fri 09:13:28 PM 35.9750 135.5150 229° Southwest 426 490 34,000 -141 Descending FlightAware ADS-B
Fri 09:14:13 PM 35.9170 135.4320 229° Southwest 421 484 34,000  Level FlightAware ADS-B
Fri 09:14:53 PM 35.8650 135.3580 229° Southwest 424 488 34,000  Level FlightAware ADS-B
Fri 09:15:38 PM 35.8080 135.2770 229° Southwest 424 488 34,000  Level FlightAware ADS-B
Fri 09:16:18 PM 35.7560 135.2030 229° Southwest 420 483 34,000  Level FlightAware ADS-B
Fri 09:16:58 PM 35.7070 135.1340 229° Southwest 421 484 34,000  Level FlightAware ADS-B
Fri 09:17:38 PM 35.6530 135.0580 229° Southwest 430 495 34,000  Level FlightAware ADS-B
Fri 09:19:08 PM 35.5340 134.8900 229° Southwest 436 502 34,000 -185 Level FlightAware ADS-B
Fri 09:19:48 PM 35.4820 134.8170 229° Southwest 424 488 33,600 -1,425 Descending FlightAware ADS-B
Fri 09:20:28 PM 35.4300 134.7450 228° Southwest 412 474 32,100 -2,400 Descending FlightAware ADS-B
Fri 09:21:38 PM 35.3440 134.6250 229° Southwest 394 453 29,200 -2,291 Descending FlightAware ADS-B
Fri 09:22:18 PM 35.3010 134.5650 229° Southwest 378 435 27,900 -2,018 Descending FlightAware ADS-B
Fri 09:23:28 PM 35.2220 134.4560 228° Southwest 365 420 25,500 -2,110 Descending FlightAware ADS-B
Fri 09:24:43 PM 35.1410 134.3430 229° Southwest 348 400 22,800 -2,200 Descending FlightAware ADS-B
Fri 09:25:58 PM 35.0620 134.2340 228° Southwest 346 398 20,000 -2,229 Descending FlightAware ADS-B
Fri 09:27:03 PM 34.9870 134.1310 228° Southwest 360 414 17,600 -1,778 Descending FlightAware ADS-B
Fri 09:28:13 PM 34.8950 134.0540 214° Southwest 360 414 16,000 -640 Descending FlightAware ADS-B
Fri 09:29:33 PM 34.7710 134.1000 163° South 385 443 16,000  Level FlightAware ADS-B
Fri 09:30:48 PM 34.6510 134.1900 148° Southeast 382 440 16,000 -703 Level FlightAware ADS-B
Fri 09:31:58 PM 34.5480 134.2690 148° Southeast 366 421 14,300 -1,636 Descending FlightAware ADS-B
Fri 09:32:38 PM 34.4890 134.3150 147° Southeast 367 422 13,000 -1,875 Descending FlightAware ADS-B
Fri 09:33:18 PM 34.4320 134.3580 148° Southeast 362 417 11,800 -1,271 Descending FlightAware ADS-B
Fri 09:34:03 PM 34.3690 134.4040 149° Southeast 332 382 11,200 -635 Descending FlightAware ADS-B
Fri 09:34:43 PM 34.3310 134.4560 131° Southeast 313 360 10,900 -847 Descending FlightAware ADS-B
Fri 09:35:28 PM 34.2900 134.5170 129° Southeast 302 348 10,000 -1,200 Descending FlightAware ADS-B
Fri 09:35:43 PM 34.2760 134.5370 130° Southeast 301 346 9,700 -1,309 Descending FlightAware ADS-B
Fri 09:36:23 PM 34.2410 134.5870 130° Southeast 297 342 8,800 -1,309 Descending FlightAware ADS-B
Fri 09:36:38 PM 34.2270 134.6070 130° Southeast 297 342 8,500 -1,350 Descending FlightAware ADS-B
Fri 09:37:03 PM 34.2070 134.6360 130° Southeast 296 341 7,900 -1,350 Descending FlightAware ADS-B
Fri 09:37:18 PM 34.1970 134.6630 114° Southeast 297 342 7,600 -1,200 Descending FlightAware ADS-B
Fri 09:37:23 PM 34.1940 134.6710 114° Southeast 295 339 7,500 -1,333 Descending FlightAware ADS-B
Fri 09:38:03 PM 34.1760 134.7270 111° Southeast 292 336 6,600 -1,040 Descending FlightAware ADS-B
Fri 09:38:38 PM 34.1600 134.7770 111° Southeast 281 323 6,200 -873 Descending FlightAware ADS-B
Fri 09:38:58 PM 34.1630 134.8100 84° East 272 313 5,800 -1,200 Descending FlightAware ADS-B
Fri 09:39:23 PM 34.1830 134.8420 53° Northeast 271 312 5,300 -1,091 Descending FlightAware ADS-B
Fri 09:39:53 PM 34.2080 134.8790 51° Northeast 267 307 4,800 -857 Descending FlightAware ADS-B
Fri 09:40:33 PM 34.2350 134.9180 50° Northeast 258 297 4,300 -686 Descending FlightAware ADS-B
Fri 09:41:03 PM 34.2590 134.9550 52° Northeast 236 272 4,000 -533 Descending FlightAware ADS-B
Fri 09:41:18 PM 34.2690 134.9690 49° Northeast 233 268 3,900 -171 Descending FlightAware ADS-B
Fri 09:41:38 PM 34.2830 134.9900 51° Northeast 233 268 3,900 -218 Level FlightAware ADS-B
Fri 09:42:13 PM 34.3070 135.0250 50° Northeast 212 244 3,700 -646 Descending FlightAware ADS-B
Fri 09:42:43 PM 34.3230 135.0500 52° Northeast 206 237 3,200 -1,067 Descending FlightAware ADS-B
Fri 09:42:58 PM 34.3330 135.0640 49° Northeast 194 223 2,900 -1,029 Descending FlightAware ADS-B
Fri 09:43:53 PM 34.3620 135.1070 51° Northeast 170 196 2,000 -675 Descending FlightAware ADS-B
Fri 09:44:18 PM 34.3740 135.1250 51° Northeast 170 196 2,000  Level FlightAware ADS-B
Fri 09:46:00 PM 34.4167 135.2333 54° Northeast  Level FlightAware Approximate
Fri 09:47:00 PM 34.4273 135.2441 54° Northeast  Level Estimated
Fri 09:48:00 PM 34.4273 135.2441 54° Northeast  Level Estimated
Fri 09:49:00 PM 34.4273 135.2441 54° Northeast  Level Estimated
Fri 09:50:00 PM 34.4273 135.2441 54° Northeast  Level Estimated
Fri 09:51:00 PM 34.4273 135.2441 54° Northeast  Level Estimated
Fri 09:52:00 PM 34.4273 135.2441 54° Northeast  Level Estimated
Fri 09:53:00 PM 34.4273 135.2441 54° Northeast  Level Estimated
Fri 09:54:00 PM 34.4273 135.2441 54° Northeast  Level Estimated
Fri 09:55:00 PM 34.4273 135.2441 54° Northeast  Level Estimated
Fri 09:56:00 PM 34.4273 135.2441 54° Northeast  Level Estimated
Fri 09:57:00 PM 34.4273 135.2441 54° Northeast  Level Estimated
Fri 09:58:00 PM 34.4273 135.2441 54° Northeast  Level Estimated
Fri 09:59:00 PM 34.4273 135.2441 54° Northeast  Level Estimated
Fri 10:00:00 PM 34.4273 135.2441 54° Northeast  Level Estimated
Fri 10:01:00 PM 34.4273 135.2441 54° Northeast  Level Estimated
Fri 10:02:00 PM 34.4273 135.2441 54° Northeast  Level Estimated
Fri 10:03:00 PM 34.4273 135.2441 54° Northeast  Level Estimated
Fri 10:04:00 PM 34.4273 135.2441 54° Northeast  Level Estimated

Login

Don't have an account? Register now (free) for customized features, flight alerts, and more!